Time;durP1;ratioP1;P1;durP2;ratioP2;P2;SDS_P1;SDS_P2;PMS_P1;PMS_P2;Temp;Humidity;BMP_temperature;BMP_pressure;BME280_temperature;BME280_humidity;BME280_pressure;Samples;Min_cycle;Max_cycle;Signal;HPM_P1;HPM_P2
2024/03/29 00:00:37;;;;;;;0.88;0.20;;;8.10;99.90;;;;;;5062148;28;20040;-69
2024/03/29 00:03:04;;;;;;;0.20;0.10;;;8.10;99.90;;;;;;5062822;28;20102;-70
2024/03/29 00:05:29;;;;;;;0.30;0.20;;;8.10;99.90;;;;;;5059622;28;20043;-70
2024/03/29 00:07:55;;;;;;;0.00;0.00;;;8.10;99.90;;;;;;5059391;28;20028;-70
2024/03/29 00:10:21;;;;;;;1.85;0.05;;;8.10;99.90;;;;;;5074087;28;20041;-69
2024/03/29 00:12:46;;;;;;;0.25;0.25;;;8.20;99.90;;;;;;5055952;28;20519;-69
2024/03/29 00:15:12;;;;;;;1.38;0.00;;;8.20;99.90;;;;;;5058103;28;20090;-70
2024/03/29 00:17:38;;;;;;;0.25;0.20;;;8.20;99.90;;;;;;5061013;28;20031;-70
2024/03/29 00:20:05;;;;;;;1.45;0.15;;;8.20;99.90;;;;;;5059532;28;20054;-70
2024/03/29 00:22:31;;;;;;;0.63;0.20;;;8.10;99.90;;;;;;5046207;28;20104;-69
2024/03/29 00:24:57;;;;;;;0.35;0.10;;;8.20;99.90;;;;;;5052858;28;20432;-70
2024/03/29 00:27:25;;;;;;;0.68;0.30;;;8.10;99.90;;;;;;5061322;28;20488;-69
2024/03/29 00:29:54;;;;;;;0.55;0.55;;;8.20;99.90;;;;;;5065654;28;20109;-69
2024/03/29 00:32:20;;;;;;;0.00;0.00;;;8.20;99.90;;;;;;5067538;28;20048;-69
2024/03/29 00:34:46;;;;;;;0.00;0.00;;;8.20;99.90;;;;;;5065759;28;20089;-69
2024/03/29 00:37:12;;;;;;;0.77;0.05;;;8.10;99.90;;;;;;5063148;28;20040;-68
2024/03/29 00:39:38;;;;;;;0.80;0.22;;;8.10;99.90;;;;;;5065726;28;20048;-69
2024/03/29 00:42:06;;;;;;;0.10;0.10;;;8.10;99.90;;;;;;5049945;28;20066;-69
2024/03/29 00:44:32;;;;;;;0.38;0.28;;;8.10;99.90;;;;;;5062686;28;20104;-69
2024/03/29 00:46:58;;;;;;;0.13;0.10;;;8.10;99.90;;;;;;5066403;28;20032;-69
2024/03/29 00:49:23;;;;;;;2.45;0.17;;;8.10;99.90;;;;;;5064644;28;20399;-69
2024/03/29 00:51:49;;;;;;;0.32;0.08;;;8.10;99.90;;;;;;5060920;28;20060;-69
2024/03/29 00:54:15;;;;;;;0.73;0.20;;;8.10;99.90;;;;;;5049245;28;20039;-70
2024/03/29 00:56:40;;;;;;;0.57;0.28;;;8.10;99.90;;;;;;5060302;28;20060;-69
2024/03/29 00:59:06;;;;;;;0.10;0.00;;;8.10;99.90;;;;;;5062018;28;20535;-71
2024/03/29 01:01:32;;;;;;;0.00;0.00;;;8.10;99.90;;;;;;5058096;28;20044;-69
2024/03/29 01:03:58;;;;;;;0.10;0.10;;;8.10;99.90;;;;;;5059420;28;20047;-70
2024/03/29 01:06:23;;;;;;;0.20;0.00;;;8.10;99.90;;;;;;5059528;28;20031;-69
2024/03/29 01:08:49;;;;;;;5.00;0.25;;;8.10;99.90;;;;;;5059990;28;20041;-69
2024/03/29 01:11:15;;;;;;;0.10;0.00;;;8.10;99.90;;;;;;5072077;28;20042;-69
2024/03/29 01:13:41;;;;;;;4.38;0.30;;;8.10;99.90;;;;;;5079811;28;20044;-69
2024/03/29 01:16:06;;;;;;;1.30;0.35;;;8.10;99.90;;;;;;5063713;28;20423;-69
2024/03/29 01:18:33;;;;;;;0.40;0.10;;;8.10;99.90;;;;;;5065754;28;20097;-69
2024/03/29 01:20:59;;;;;;;0.57;0.08;;;8.00;99.90;;;;;;5066842;28;20056;-70
2024/03/29 01:23:25;;;;;;;1.92;0.10;;;8.10;99.90;;;;;;5068499;28;20051;-69
2024/03/29 01:25:51;;;;;;;0.10;0.00;;;8.00;99.90;;;;;;5066074;28;20041;-70
2024/03/29 01:28:16;;;;;;;0.15;0.00;;;8.00;99.90;;;;;;5067825;28;20045;-69
2024/03/29 01:30:42;;;;;;;0.00;0.00;;;8.00;99.90;;;;;;5070340;28;20044;-69
2024/03/29 01:33:07;;;;;;;0.13;0.10;;;8.10;99.90;;;;;;5083958;28;20047;-69
2024/03/29 01:35:33;;;;;;;0.15;0.13;;;8.00;99.90;;;;;;5084954;28;20484;-69
2024/03/29 01:37:59;;;;;;;0.00;0.00;;;8.00;99.90;;;;;;5068606;28;20381;-70
2024/03/29 01:40:24;;;;;;;0.45;0.10;;;8.00;99.90;;;;;;5064439;28;20100;-69
2024/03/29 01:42:54;;;;;;;1.13;0.38;;;8.00;99.90;;;;;;5052050;28;20040;-69
2024/03/29 01:45:19;;;;;;;0.45;0.17;;;8.00;99.90;;;;;;5058768;28;20044;-70
2024/03/29 01:47:46;;;;;;;0.20;0.20;;;7.90;99.90;;;;;;5062769;28;20036;-69
2024/03/29 01:50:12;;;;;;;0.03;0.00;;;7.90;99.90;;;;;;5076359;28;20093;-70
2024/03/29 01:52:38;;;;;;;1.65;0.00;;;7.90;99.90;;;;;;5082651;28;20048;-70
2024/03/29 01:55:05;;;;;;;1.33;0.13;;;8.00;99.90;;;;;;5062756;28;20456;-70
2024/03/29 01:57:31;;;;;;;0.28;0.10;;;7.90;99.90;;;;;;5065317;28;20055;-70
2024/03/29 01:59:57;;;;;;;0.22;0.20;;;7.90;99.90;;;;;;5083538;28;20036;-69
2024/03/29 02:02:23;;;;;;;1.35;0.10;;;7.90;99.90;;;;;;5052066;28;20032;-70
2024/03/29 02:04:49;;;;;;;0.43;0.10;;;7.80;99.90;;;;;;5066791;28;20383;-70
2024/03/29 02:07:16;;;;;;;1.00;0.10;;;7.80;99.90;;;;;;5070082;28;20041;-70
2024/03/29 02:09:41;;;;;;;0.60;0.20;;;7.70;99.90;;;;;;5065349;28;20072;-70
2024/03/29 02:12:07;;;;;;;0.20;0.00;;;7.70;99.90;;;;;;5054226;28;20137;-69
2024/03/29 02:14:33;;;;;;;0.00;0.00;;;7.70;99.90;;;;;;5066376;28;20036;-69
2024/03/29 02:16:59;;;;;;;0.00;0.00;;;7.70;99.90;;;;;;5067843;28;20048;-69
2024/03/29 02:19:24;;;;;;;0.00;0.00;;;7.70;99.90;;;;;;5065588;28;20062;-69
2024/03/29 02:21:53;;;;;;;1.83;0.52;;;7.70;99.90;;;;;;5052745;28;20407;-68
2024/03/29 02:24:19;;;;;;;4.60;0.50;;;7.70;99.90;;;;;;5053667;28;20598;-70
2024/03/29 02:26:46;;;;;;;0.00;0.00;;;7.70;99.90;;;;;;5070530;28;20048;-69
2024/03/29 02:29:12;;;;;;;0.00;0.00;;;7.70;99.90;;;;;;5066380;28;20481;-69
2024/03/29 02:31:38;;;;;;;0.40;0.20;;;7.70;99.90;;;;;;5052793;28;20051;-69
2024/03/29 02:34:04;;;;;;;0.25;0.00;;;7.60;99.90;;;;;;5052806;28;20084;-69
2024/03/29 02:36:29;;;;;;;0.00;0.00;;;7.70;99.90;;;;;;5061944;28;20036;-70
2024/03/29 02:38:55;;;;;;;0.63;0.17;;;7.70;99.90;;;;;;5065942;28;20178;-69
2024/03/29 02:41:22;;;;;;;0.00;0.00;;;7.70;99.90;;;;;;5055297;28;20048;-69
2024/03/29 02:43:47;;;;;;;0.88;0.03;;;7.70;99.90;;;;;;5059493;28;20032;-69
2024/03/29 02:46:13;;;;;;;0.00;0.00;;;7.70;99.90;;;;;;5060981;28;20028;-69
2024/03/29 02:48:39;;;;;;;1.85;0.30;;;7.70;99.90;;;;;;5061002;28;20067;-70
2024/03/29 02:51:04;;;;;;;1.38;0.10;;;7.70;99.90;;;;;;5062770;28;20040;-69
2024/03/29 02:53:30;;;;;;;2.05;0.40;;;7.70;99.90;;;;;;5068944;28;20044;-69
2024/03/29 02:55:56;;;;;;;0.10;0.10;;;7.70;99.90;;;;;;5022937;28;1097757;-69
2024/03/29 02:58:21;;;;;;;0.00;0.00;;;7.70;99.90;;;;;;5061283;28;20055;-69
2024/03/29 03:00:47;;;;;;;0.80;0.25;;;7.70;99.90;;;;;;5059380;28;20133;-70
2024/03/29 03:03:15;;;;;;;0.55;0.10;;;7.60;99.90;;;;;;5057707;28;20357;-69
2024/03/29 03:05:41;;;;;;;0.20;0.10;;;7.60;99.90;;;;;;5061394;28;20380;-70
2024/03/29 03:10:59;;;;;;;2.40;0.20;;;7.70;99.90;;;;;;5061695;28;20063;-69
2024/03/29 03:13:26;;;;;;;0.00;0.00;;;7.70;99.90;;;;;;5068419;28;20040;-69
2024/03/29 03:15:52;;;;;;;0.30;0.10;;;7.70;99.90;;;;;;5057195;28;20037;-69
2024/03/29 03:18:17;;;;;;;0.30;0.10;;;7.70;99.90;;;;;;5063209;28;20066;-70
2024/03/29 03:20:53;;;;;;;0.80;0.10;;;7.70;99.90;;;;;;5049914;28;20433;-69
2024/03/29 03:23:19;;;;;;;1.13;0.03;;;7.70;99.90;;;;;;5039738;28;20036;-69
2024/03/29 03:25:55;;;;;;;0.00;0.00;;;7.70;99.90;;;;;;5044289;28;20052;-69
2024/03/29 03:28:21;;;;;;;0.20;0.17;;;7.70;99.90;;;;;;5058861;28;20053;-70
2024/03/29 03:30:51;;;;;;;0.38;0.10;;;7.80;99.90;;;;;;5055711;28;20036;-69
2024/03/29 03:33:17;;;;;;;5.18;0.65;;;7.80;99.90;;;;;;5059797;28;20473;-69
2024/03/29 03:35:43;;;;;;;0.30;0.20;;;7.80;99.90;;;;;;5043060;28;20040;-69
2024/03/29 03:38:09;;;;;;;0.60;0.25;;;7.80;99.90;;;;;;5050604;28;20124;-69
2024/03/29 03:40:36;;;;;;;0.73;0.17;;;7.80;99.90;;;;;;5054967;28;20143;-69
2024/03/29 03:43:03;;;;;;;0.00;0.00;;;7.80;99.90;;;;;;5064954;28;20040;-70
2024/03/29 03:45:33;;;;;;;0.15;0.10;;;7.80;99.90;;;;;;5060014;28;20032;-69
2024/03/29 03:47:58;;;;;;;0.35;0.20;;;7.80;99.90;;;;;;5057600;28;20041;-69
2024/03/29 03:50:24;;;;;;;0.13;0.03;;;7.80;99.90;;;;;;5056712;28;20039;-69
2024/03/29 03:52:50;;;;;;;0.17;0.08;;;7.80;99.90;;;;;;5046636;28;20125;-69
2024/03/29 03:55:15;;;;;;;0.00;0.00;;;7.80;99.90;;;;;;5064493;28;20047;-69
2024/03/29 03:57:41;;;;;;;0.00;0.00;;;7.80;99.90;;;;;;5060076;28;20053;-69
2024/03/29 04:00:07;;;;;;;0.38;0.35;;;7.80;99.90;;;;;;5060201;28;20480;-69
2024/03/29 04:02:33;;;;;;;0.00;0.00;;;7.90;99.90;;;;;;5059725;28;20040;-69
2024/03/29 04:04:59;;;;;;;0.30;0.00;;;7.90;99.90;;;;;;5057232;28;20543;-70
2024/03/29 04:07:25;;;;;;;5.57;0.25;;;7.90;99.90;;;;;;5049228;28;20381;-68
2024/03/29 04:09:51;;;;;;;0.55;0.10;;;8.00;99.90;;;;;;5056545;28;20068;-70
2024/03/29 04:12:17;;;;;;;1.13;0.20;;;8.00;99.90;;;;;;5047116;28;20547;-70
2024/03/29 04:14:43;;;;;;;0.00;0.00;;;8.00;99.90;;;;;;5048790;28;20132;-69
2024/03/29 04:17:09;;;;;;;0.38;0.10;;;8.10;99.90;;;;;;5054428;28;20037;-69
2024/03/29 04:19:34;;;;;;;0.25;0.17;;;8.10;99.90;;;;;;5054190;28;20199;-70
2024/03/29 04:22:00;;;;;;;0.30;0.10;;;8.00;99.90;;;;;;5054476;28;20045;-69
2024/03/29 04:24:28;;;;;;;0.00;0.00;;;8.10;99.90;;;;;;5053822;28;20037;-70
2024/03/29 04:26:53;;;;;;;0.00;0.00;;;8.00;99.90;;;;;;5064018;28;20040;-69
2024/03/29 04:29:19;;;;;;;0.43;0.10;;;8.00;99.90;;;;;;5057687;28;20405;-70
2024/03/29 04:31:46;;;;;;;0.00;0.00;;;8.00;99.90;;;;;;5056459;28;20071;-69
2024/03/29 04:34:11;;;;;;;0.00;0.00;;;8.10;99.90;;;;;;5057493;28;20037;-70
2024/03/29 04:36:38;;;;;;;0.35;0.10;;;8.00;99.90;;;;;;5042942;28;20082;-69
2024/03/29 04:39:04;;;;;;;0.65;0.17;;;8.00;99.90;;;;;;5048916;28;20048;-70
2024/03/29 04:41:34;;;;;;;0.00;0.00;;;8.00;99.90;;;;;;5055666;28;20044;-69
2024/03/29 04:44:00;;;;;;;2.05;0.22;;;8.10;99.90;;;;;;5058462;28;20116;-70
2024/03/29 04:46:26;;;;;;;0.00;0.00;;;8.10;99.90;;;;;;5061329;28;20044;-70
2024/03/29 04:48:51;;;;;;;0.55;0.10;;;8.10;99.90;;;;;;5048222;28;20029;-69
2024/03/29 04:51:17;;;;;;;0.63;0.25;;;8.10;99.90;;;;;;5045392;28;20125;-69
2024/03/29 04:53:43;;;;;;;0.38;0.20;;;8.00;99.90;;;;;;5061672;28;20032;-70
2024/03/29 04:56:08;;;;;;;0.75;0.20;;;8.10;99.90;;;;;;5048393;28;20057;-70
2024/03/29 04:58:34;;;;;;;2.65;0.38;;;8.20;99.90;;;;;;5064008;28;20111;-70
2024/03/29 05:01:00;;;;;;;0.98;0.05;;;8.10;99.90;;;;;;5053740;28;20045;-69
2024/03/29 05:03:25;;;;;;;0.63;0.30;;;8.20;99.90;;;;;;5045201;28;20480;-70
2024/03/29 05:05:52;;;;;;;0.20;0.20;;;8.20;99.90;;;;;;5051194;28;20044;-70
2024/03/29 05:08:19;;;;;;;0.00;0.00;;;8.30;99.90;;;;;;5054800;28;20036;-69
2024/03/29 05:10:46;;;;;;;0.57;0.20;;;8.30;99.90;;;;;;5053373;28;20051;-69
2024/03/29 05:13:12;;;;;;;1.13;0.20;;;8.30;99.90;;;;;;5056745;28;20044;-69
2024/03/29 05:15:37;;;;;;;1.25;0.15;;;8.30;99.90;;;;;;5047318;28;20063;-70
2024/03/29 05:18:03;;;;;;;1.85;0.52;;;8.30;99.90;;;;;;5055926;28;20056;-69
2024/03/29 05:20:30;;;;;;;0.98;0.15;;;8.30;99.90;;;;;;5052884;28;20041;-69
2024/03/29 05:22:55;;;;;;;0.65;0.10;;;8.30;99.90;;;;;;5064534;28;20041;-69
2024/03/29 05:25:21;;;;;;;2.72;0.20;;;8.40;99.90;;;;;;5053093;28;20048;-69
2024/03/29 05:27:47;;;;;;;0.00;0.00;;;8.40;99.90;;;;;;5064012;28;20135;-69
2024/03/29 05:30:13;;;;;;;0.03;0.00;;;8.40;99.90;;;;;;5057317;28;20098;-69
2024/03/29 05:32:39;;;;;;;2.28;0.20;;;8.40;99.90;;;;;;5067526;28;20515;-70
2024/03/29 05:35:06;;;;;;;0.20;0.00;;;8.40;99.90;;;;;;5058116;28;20040;-70
2024/03/29 05:37:31;;;;;;;0.32;0.30;;;8.40;99.90;;;;;;5048473;28;20044;-71
2024/03/29 05:40:00;;;;;;;1.42;0.43;;;8.40;99.90;;;;;;5047844;28;20053;-70
2024/03/29 05:42:26;;;;;;;0.30;0.20;;;8.40;99.90;;;;;;5058681;28;20171;-70
2024/03/29 05:44:52;;;;;;;2.90;0.20;;;8.50;99.90;;;;;;5062229;28;20082;-70
2024/03/29 05:47:18;;;;;;;0.15;0.00;;;8.50;99.90;;;;;;5065232;28;20040;-70
2024/03/29 05:49:43;;;;;;;0.32;0.15;;;8.50;99.90;;;;;;5060635;28;20040;-70
2024/03/29 05:52:09;;;;;;;0.00;0.00;;;8.60;99.90;;;;;;5065441;28;20041;-70
2024/03/29 05:54:35;;;;;;;0.10;0.03;;;8.60;99.90;;;;;;5049300;28;20033;-70
2024/03/29 05:57:00;;;;;;;0.52;0.13;;;8.60;99.90;;;;;;5064665;28;20060;-70
2024/03/29 05:59:26;;;;;;;0.45;0.20;;;8.70;99.90;;;;;;5053782;28;20041;-71
2024/03/29 06:01:52;;;;;;;0.00;0.00;;;8.70;99.90;;;;;;5055645;28;20033;-70
2024/03/29 06:04:21;;;;;;;0.03;0.03;;;8.70;99.90;;;;;;5060319;28;20040;-70
2024/03/29 06:06:47;;;;;;;0.45;0.00;;;8.70;99.90;;;;;;5067545;28;20044;-70
2024/03/29 06:09:13;;;;;;;0.00;0.00;;;8.70;99.90;;;;;;5062196;28;20032;-69
2024/03/29 06:11:38;;;;;;;0.00;0.00;;;8.70;99.90;;;;;;5058981;28;20485;-69
2024/03/29 06:19:15;;;;;;;0.20;0.17;;;8.80;99.90;;;;;;5057197;28;20150;-70
2024/03/29 06:21:42;;;;;;;0.20;0.10;;;8.80;99.90;;;;;;5064689;28;20056;-69
2024/03/29 06:24:14;;;;;;;2.30;0.17;;;8.80;99.90;;;;;;5058831;28;20105;-70
2024/03/29 06:26:39;;;;;;;1.90;0.65;;;8.80;99.90;;;;;;5056048;28;20167;-70
2024/03/29 06:29:05;;;;;;;0.00;0.00;;;8.90;99.90;;;;;;5064709;28;20526;-70
2024/03/29 06:31:31;;;;;;;0.35;0.10;;;8.90;99.90;;;;;;5063100;28;20707;-70
2024/03/29 06:34:00;;;;;;;0.40;0.00;;;8.80;99.90;;;;;;5074438;28;20123;-70
2024/03/29 06:36:26;;;;;;;2.13;0.00;;;8.90;99.90;;;;;;5044743;28;20036;-71
2024/03/29 06:38:53;;;;;;;0.93;0.15;;;8.90;99.90;;;;;;5039352;28;20040;-70
2024/03/29 06:41:19;;;;;;;1.20;0.20;;;8.90;99.90;;;;;;5056630;28;20099;-70
2024/03/29 06:43:45;;;;;;;0.30;0.00;;;9.00;99.90;;;;;;5059784;28;20036;-70
2024/03/29 06:46:11;;;;;;;0.00;0.00;;;9.00;99.90;;;;;;5061204;28;20033;-70
2024/03/29 06:48:37;;;;;;;1.25;0.10;;;9.10;99.90;;;;;;5055955;28;20052;-71
2024/03/29 06:51:03;;;;;;;0.15;0.00;;;9.00;99.90;;;;;;5045546;28;20119;-70
2024/03/29 06:53:29;;;;;;;1.67;0.10;;;9.00;99.90;;;;;;5062078;28;20028;-70
2024/03/29 06:55:56;;;;;;;0.00;0.00;;;9.00;99.90;;;;;;5057429;28;20238;-70
2024/03/29 06:58:23;;;;;;;0.22;0.00;;;9.00;99.90;;;;;;5064700;28;20044;-69
2024/03/29 07:00:52;;;;;;;0.10;0.10;;;9.00;99.90;;;;;;5060283;28;20128;-70
2024/03/29 07:03:18;;;;;;;0.73;0.00;;;9.00;99.90;;;;;;5051515;28;20075;-70
2024/03/29 07:05:47;;;;;;;0.03;0.00;;;9.10;99.90;;;;;;5064731;28;20464;-70
2024/03/29 07:08:13;;;;;;;0.75;0.00;;;9.00;99.90;;;;;;5068545;28;20047;-70
2024/03/29 07:10:39;;;;;;;0.08;0.00;;;9.10;99.90;;;;;;5060368;28;20032;-69
2024/03/29 07:13:06;;;;;;;0.00;0.00;;;9.00;99.90;;;;;;5063315;28;20039;-69
2024/03/29 07:15:32;;;;;;;0.00;0.00;;;9.10;99.90;;;;;;5063035;28;20032;-70
2024/03/29 07:17:58;;;;;;;0.17;0.15;;;9.00;99.90;;;;;;5051820;28;20055;-70
2024/03/29 07:20:25;;;;;;;0.88;0.20;;;9.00;99.90;;;;;;5064559;28;20266;-70
2024/03/29 07:22:51;;;;;;;0.35;0.03;;;9.10;99.90;;;;;;5064704;28;20492;-69
2024/03/29 07:25:17;;;;;;;1.55;0.10;;;9.10;99.90;;;;;;5060692;28;20053;-69
2024/03/29 07:27:43;;;;;;;0.00;0.00;;;9.10;99.90;;;;;;5064632;28;20097;-69
2024/03/29 07:30:11;;;;;;;0.13;0.10;;;9.10;99.90;;;;;;5068307;28;20048;-70
2024/03/29 07:32:37;;;;;;;0.88;0.30;;;9.20;99.90;;;;;;5060172;28;20504;-69
2024/03/29 07:35:03;;;;;;;7.07;0.52;;;9.30;99.90;;;;;;5061280;28;20588;-70
2024/03/29 07:37:28;;;;;;;0.35;0.10;;;9.40;99.90;;;;;;5063669;28;20040;-71
2024/03/29 07:39:54;;;;;;;0.10;0.10;;;9.50;99.90;;;;;;5063484;28;20077;-69
2024/03/29 07:42:20;;;;;;;0.10;0.00;;;9.50;99.90;;;;;;5058882;28;20032;-69
2024/03/29 07:44:45;;;;;;;0.00;0.00;;;9.50;99.90;;;;;;5067849;28;20566;-69
2024/03/29 07:47:14;;;;;;;0.35;0.20;;;9.40;99.90;;;;;;5062391;28;20042;-69
2024/03/29 07:49:40;;;;;;;0.20;0.10;;;9.50;99.90;;;;;;5062739;28;20539;-69
2024/03/29 07:52:08;;;;;;;0.17;0.03;;;9.50;99.90;;;;;;5071752;28;20383;-70
2024/03/29 07:54:34;;;;;;;3.53;0.10;;;9.50;99.90;;;;;;5083732;28;20032;-70
2024/03/29 07:57:01;;;;;;;0.10;0.00;;;9.60;99.90;;;;;;5061485;28;20048;-69
2024/03/29 07:59:27;;;;;;;0.00;0.00;;;9.50;99.90;;;;;;5067144;28;20041;-70
2024/03/29 08:01:54;;;;;;;0.20;0.20;;;9.50;99.90;;;;;;5066902;28;20036;-69
2024/03/29 08:04:20;;;;;;;0.20;0.10;;;9.40;99.90;;;;;;5063334;28;20040;-69
2024/03/29 08:06:46;;;;;;;2.38;0.10;;;9.40;99.90;;;;;;5064953;28;20055;-69
2024/03/29 08:09:13;;;;;;;0.50;0.25;;;9.30;99.90;;;;;;5064521;28;20492;-69
2024/03/29 08:11:40;;;;;;;0.00;0.00;;;9.20;99.90;;;;;;5051211;28;20093;-69
2024/03/29 08:14:05;;;;;;;0.90;0.30;;;9.10;99.90;;;;;;5048357;28;20410;-70
2024/03/29 08:16:31;;;;;;;2.17;0.32;;;9.10;99.90;;;;;;5066680;28;20109;-70
2024/03/29 08:18:58;;;;;;;0.47;0.05;;;9.10;99.90;;;;;;5063108;28;20059;-70
2024/03/29 08:21:27;;;;;;;0.40;0.10;;;9.10;99.90;;;;;;5065405;28;20058;-70
2024/03/29 08:23:54;;;;;;;0.57;0.25;;;9.10;99.90;;;;;;5063675;28;20492;-70
2024/03/29 08:26:21;;;;;;;0.15;0.15;;;9.10;99.90;;;;;;5063014;28;20040;-70
2024/03/29 08:28:46;;;;;;;0.20;0.10;;;9.10;99.90;;;;;;5061064;28;20036;-70
2024/03/29 08:31:12;;;;;;;0.05;0.00;;;9.10;99.90;;;;;;5075427;28;20044;-70
2024/03/29 08:33:38;;;;;;;0.52;0.00;;;9.20;99.90;;;;;;5069271;28;20044;-70
2024/03/29 08:36:09;;;;;;;0.40;0.00;;;9.10;99.90;;;;;;5057206;28;20119;-71
2024/03/29 08:38:36;;;;;;;2.67;0.30;;;9.10;99.90;;;;;;5060119;28;20040;-70
2024/03/29 08:41:02;;;;;;;0.00;0.00;;;9.20;99.90;;;;;;5063120;28;20048;-71
2024/03/29 08:43:27;;;;;;;1.42;0.30;;;9.30;99.90;;;;;;5053984;28;20036;-72
2024/03/29 08:45:53;;;;;;;1.65;0.17;;;9.50;99.90;;;;;;5052435;28;20040;-71
2024/03/29 08:48:19;;;;;;;0.52;0.10;;;9.80;99.90;;;;;;5077767;28;20080;-71
2024/03/29 08:50:46;;;;;;;0.57;0.40;;;9.90;99.90;;;;;;5052844;28;20048;-71
2024/03/29 08:53:11;;;;;;;0.25;0.10;;;10.00;99.90;;;;;;5062211;28;20495;-71
2024/03/29 08:55:39;;;;;;;0.00;0.00;;;10.20;99.90;;;;;;5063882;28;20071;-71
2024/03/29 08:58:05;;;;;;;0.35;0.15;;;10.40;99.90;;;;;;5052721;28;20501;-71
2024/03/29 09:00:31;;;;;;;0.95;0.08;;;10.60;99.90;;;;;;5062605;28;20196;-70
2024/03/29 09:02:56;;;;;;;0.08;0.08;;;10.70;99.90;;;;;;5050802;28;20398;-71
2024/03/29 09:05:23;;;;;;;0.10;0.10;;;10.70;99.90;;;;;;5065362;28;20032;-70
2024/03/29 09:07:49;;;;;;;3.63;0.17;;;10.80;99.90;;;;;;5061014;28;20047;-70
2024/03/29 09:10:15;;;;;;;0.15;0.00;;;10.90;99.90;;;;;;5064298;28;20035;-70
2024/03/29 09:12:41;;;;;;;0.10;0.10;;;11.00;99.90;;;;;;5059505;28;20527;-70
2024/03/29 09:15:10;;;;;;;0.45;0.10;;;11.70;99.90;;;;;;5070631;28;20040;-70
2024/03/29 09:17:36;;;;;;;0.10;0.10;;;12.10;99.90;;;;;;5062449;28;20123;-71
2024/03/29 09:20:04;;;;;;;0.20;0.00;;;12.20;99.90;;;;;;5064139;28;20158;-71
2024/03/29 09:22:30;;;;;;;0.70;0.22;;;12.10;99.90;;;;;;5063734;28;20032;-71
2024/03/29 09:24:55;;;;;;;0.05;0.00;;;12.00;99.90;;;;;;5064778;28;20055;-71
2024/03/29 09:27:21;;;;;;;0.28;0.05;;;11.90;99.90;;;;;;5072091;28;20115;-71
2024/03/29 09:29:50;;;;;;;0.30;0.10;;;11.80;99.90;;;;;;5056554;28;20099;-71
2024/03/29 09:32:17;;;;;;;0.00;0.00;;;11.90;99.90;;;;;;5066812;28;20126;-71
2024/03/29 09:34:44;;;;;;;0.60;0.10;;;11.90;99.90;;;;;;5062772;28;20125;-71
2024/03/29 09:37:10;;;;;;;3.95;0.20;;;11.90;99.90;;;;;;5062840;28;20076;-71
2024/03/29 09:39:35;;;;;;;0.40;0.10;;;12.00;99.90;;;;;;5045001;28;20068;-72
2024/03/29 09:42:03;;;;;;;0.13;0.10;;;12.00;99.90;;;;;;5064939;28;20225;-71
2024/03/29 09:44:35;;;;;;;1.17;0.38;;;11.90;99.90;;;;;;5061503;28;20522;-71
2024/03/29 09:47:05;;;;;;;0.10;0.03;;;11.90;99.90;;;;;;5055451;28;20044;-71
2024/03/29 09:49:32;;;;;;;2.53;0.30;;;11.90;99.90;;;;;;5066135;28;20169;-71
2024/03/29 09:51:59;;;;;;;2.42;0.57;;;12.10;99.90;;;;;;5073974;28;20028;-71
2024/03/29 09:54:28;;;;;;;0.20;0.05;;;12.40;99.90;;;;;;5066656;28;20490;-71
2024/03/29 09:56:57;;;;;;;2.42;0.57;;;12.50;99.90;;;;;;5072892;28;20503;-73
2024/03/29 09:59:23;;;;;;;0.55;0.30;;;13.00;99.90;;;;;;5067331;28;20491;-72
2024/03/29 10:01:50;;;;;;;0.08;0.08;;;13.80;99.90;;;;;;5063545;28;20044;-72
2024/03/29 10:04:17;;;;;;;0.00;0.00;;;14.80;99.90;;;;;;5067220;28;20177;-72
2024/03/29 10:06:49;;;;;;;0.03;0.03;;;15.40;99.90;;;;;;5072553;28;20036;-72
2024/03/29 10:09:17;;;;;;;0.00;0.00;;;15.50;99.90;;;;;;5063374;28;20370;-71
2024/03/29 10:11:44;;;;;;;0.10;0.00;;;15.20;99.90;;;;;;5059104;28;20040;-72
2024/03/29 10:14:10;;;;;;;3.88;0.10;;;14.80;99.90;;;;;;5069723;28;20044;-71
2024/03/29 10:16:36;;;;;;;0.00;0.00;;;14.40;99.90;;;;;;5057622;28;20475;-70
2024/03/29 10:19:02;;;;;;;0.10;0.00;;;14.00;99.90;;;;;;5072082;28;20051;-70
2024/03/29 10:21:28;;;;;;;1.25;0.20;;;13.80;99.90;;;;;;5067789;28;20054;-71
2024/03/29 10:23:54;;;;;;;0.22;0.05;;;13.60;99.90;;;;;;5056649;28;20118;-71
2024/03/29 10:26:21;;;;;;;2.33;0.20;;;13.60;99.90;;;;;;5058395;28;20071;-71
2024/03/29 10:28:47;;;;;;;0.17;0.00;;;13.60;99.90;;;;;;5066062;28;20109;-70
2024/03/29 10:31:14;;;;;;;0.00;0.00;;;13.70;99.90;;;;;;5066114;28;20048;-71
2024/03/29 10:33:43;;;;;;;1.98;0.10;;;13.70;99.90;;;;;;5069491;28;20036;-71
2024/03/29 10:36:11;;;;;;;0.00;0.00;;;13.80;99.90;;;;;;5063722;28;20051;-71
2024/03/29 10:38:38;;;;;;;0.10;0.00;;;13.90;99.90;;;;;;5066991;28;20492;-71
2024/03/29 10:41:06;;;;;;;0.10;0.10;;;14.10;99.90;;;;;;5063403;28;20036;-71
2024/03/29 10:43:33;;;;;;;0.80;0.20;;;14.40;99.90;;;;;;5052462;28;20075;-71
2024/03/29 10:46:00;;;;;;;1.05;0.20;;;14.50;99.90;;;;;;5069836;28;20043;-71
2024/03/29 10:48:27;;;;;;;0.80;0.20;;;14.70;99.90;;;;;;5066747;28;20071;-71
2024/03/29 10:50:54;;;;;;;1.05;0.13;;;14.90;99.90;;;;;;5053873;28;20036;-71
2024/03/29 10:53:25;;;;;;;1.15;0.25;;;15.10;99.90;;;;;;5069394;28;20445;-70
2024/03/29 10:55:55;;;;;;;0.10;0.00;;;15.10;99.90;;;;;;5063173;28;20055;-71
2024/03/29 10:58:24;;;;;;;1.02;0.40;;;14.90;99.90;;;;;;5046775;28;20060;-71
2024/03/29 11:00:55;;;;;;;0.95;0.10;;;14.80;99.90;;;;;;5065915;28;20047;-71
2024/03/29 11:03:50;;;;;;;1.02;0.30;;;14.60;99.90;;;;;;5081096;28;20043;-71
2024/03/29 11:06:23;;;;;;;3.25;0.55;;;14.30;99.90;;;;;;5063436;28;20044;-70
2024/03/29 11:08:52;;;;;;;0.40;0.22;;;14.00;99.90;;;;;;5061045;28;20037;-71
2024/03/29 11:11:18;;;;;;;0.68;0.32;;;13.60;99.90;;;;;;5062039;28;20040;-71
2024/03/29 11:14:07;;;;;;;0.50;0.25;;;13.30;99.90;;;;;;5063152;28;20070;-71
2024/03/29 11:16:33;;;;;;;0.90;0.40;;;13.20;99.90;;;;;;5074763;28;20080;-71
2024/03/29 11:18:59;;;;;;;0.43;0.40;;;13.30;99.90;;;;;;5063183;28;20090;-71
2024/03/29 11:21:28;;;;;;;0.50;0.30;;;13.40;99.90;;;;;;5068553;28;20044;-71
2024/03/29 11:23:55;;;;;;;0.43;0.38;;;13.40;99.90;;;;;;5047758;28;20040;-71
2024/03/29 11:26:21;;;;;;;0.88;0.60;;;13.50;99.90;;;;;;5060914;28;20515;-71
2024/03/29 11:28:51;;;;;;;0.63;0.47;;;13.50;99.90;;;;;;5062330;28;20074;-71
2024/03/29 11:31:17;;;;;;;0.40;0.40;;;13.80;99.90;;;;;;5064805;28;20051;-72
2024/03/29 11:33:44;;;;;;;1.92;0.60;;;14.10;99.90;;;;;;5065663;28;20036;-72
2024/03/29 11:36:21;;;;;;;0.75;0.57;;;14.10;99.90;;;;;;5064226;28;20938;-71
2024/03/29 11:38:48;;;;;;;1.95;0.70;;;14.00;99.90;;;;;;5058983;28;20044;-70
2024/03/29 11:41:16;;;;;;;0.57;0.47;;;13.90;99.90;;;;;;5060837;28;20112;-71
2024/03/29 11:43:43;;;;;;;0.38;0.38;;;14.00;99.90;;;;;;5043104;28;20079;-72
2024/03/29 11:46:13;;;;;;;1.17;0.73;;;14.10;99.90;;;;;;5061086;28;20055;-71
2024/03/29 11:48:40;;;;;;;0.75;0.32;;;14.40;99.90;;;;;;5060710;28;20036;-71
2024/03/29 11:51:12;;;;;;;0.93;0.40;;;14.90;99.90;;;;;;5060693;28;20044;-71
2024/03/29 11:53:38;;;;;;;0.95;0.60;;;15.50;99.90;;;;;;5049711;28;20047;-71
2024/03/29 11:56:04;;;;;;;2.03;0.77;;;15.90;99.90;;;;;;5057359;28;20041;-72
2024/03/29 11:58:32;;;;;;;0.45;0.40;;;16.30;99.90;;;;;;5063538;28;20101;-72
2024/03/29 12:00:58;;;;;;;0.95;0.40;;;16.70;99.90;;;;;;5060710;28;20048;-72
2024/03/29 12:03:26;;;;;;;0.80;0.50;;;17.10;99.90;;;;;;5062227;28;20131;-72
2024/03/29 12:05:55;;;;;;;0.17;0.15;;;17.20;99.90;;;;;;5064560;28;20032;-72
2024/03/29 12:08:24;;;;;;;0.93;0.30;;;17.50;99.90;;;;;;5066854;28;20040;-72
2024/03/29 12:10:50;;;;;;;0.30;0.20;;;17.60;99.90;;;;;;5082793;28;20890;-73
2024/03/29 12:13:17;;;;;;;0.40;0.15;;;18.00;99.90;;;;;;5063163;28;20151;-73
2024/03/29 12:15:43;;;;;;;0.15;0.10;;;18.50;99.90;;;;;;5061446;28;20448;-72
2024/03/29 12:18:09;;;;;;;0.10;0.10;;;19.10;99.90;;;;;;5066298;28;20039;-73
2024/03/29 12:20:38;;;;;;;0.20;0.15;;;19.40;99.90;;;;;;5053312;28;20136;-73
2024/03/29 12:23:09;;;;;;;0.00;0.00;;;19.50;99.90;;;;;;5071895;28;20040;-73
2024/03/29 12:25:36;;;;;;;0.00;0.00;;;19.40;99.90;;;;;;5063079;28;20086;-72
2024/03/29 12:28:03;;;;;;;0.45;0.10;;;19.10;99.90;;;;;;5063456;28;20151;-72
2024/03/29 12:30:29;;;;;;;0.57;0.05;;;18.30;99.90;;;;;;5057627;28;20073;-73
2024/03/29 12:33:08;;;;;;;0.50;0.10;;;17.80;99.90;;;;;;5062014;28;20097;-72
2024/03/29 12:35:34;;;;;;;0.20;0.10;;;17.50;99.90;;;;;;5079878;28;20125;-72
2024/03/29 12:38:02;;;;;;;0.82;0.10;;;17.40;99.90;;;;;;5061741;28;20089;-71
2024/03/29 12:40:32;;;;;;;0.25;0.10;;;17.30;99.90;;;;;;5055421;28;20051;-72
2024/03/29 12:42:58;;;;;;;1.45;0.25;;;17.40;99.90;;;;;;5060261;28;20036;-72
2024/03/29 12:45:26;;;;;;;0.45;0.15;;;17.20;99.90;;;;;;5067821;28;20076;-72
2024/03/29 12:47:52;;;;;;;0.90;0.10;;;16.90;99.90;;;;;;5043676;28;20040;-73
2024/03/29 12:50:32;;;;;;;0.35;0.10;;;17.00;99.90;;;;;;5061600;28;20103;-72
2024/03/29 12:53:00;;;;;;;0.10;0.03;;;17.10;99.90;;;;;;5071249;28;20040;-72
2024/03/29 12:55:30;;;;;;;0.40;0.08;;;16.90;99.90;;;;;;5051537;28;20036;-72
2024/03/29 12:57:56;;;;;;;0.13;0.10;;;16.50;99.90;;;;;;5064856;28;20048;-72